sensor_id;sensor_type;location;lat;lon;timestamp;pressure;altitude;pressure_sealevel;temperature;humidity
41102;BME280;26845;50.190;19.178;2023-11-21T00:01:54;97820.17;;;7.68;100.00
41102;BME280;26845;50.190;19.178;2023-11-21T00:04:22;97820.75;;;7.68;100.00
41102;BME280;26845;50.190;19.178;2023-11-21T00:06:48;97817.25;;;7.66;100.00
41102;BME280;26845;50.190;19.178;2023-11-21T00:09:14;97813.29;;;7.68;100.00
41102;BME280;26845;50.190;19.178;2023-11-21T00:11:41;97820.36;;;7.68;100.00
41102;BME280;26845;50.190;19.178;2023-11-21T00:14:07;97820.49;;;7.67;100.00
41102;BME280;26845;50.190;19.178;2023-11-21T00:16:34;97817.05;;;7.67;100.00
41102;BME280;26845;50.190;19.178;2023-11-21T00:19:00;97822.02;;;7.68;100.00
41102;BME280;26845;50.190;19.178;2023-11-21T00:21:26;97825.39;;;7.66;100.00
41102;BME280;26845;50.190;19.178;2023-11-21T00:23:52;97826.87;;;7.64;100.00
41102;BME280;26845;50.190;19.178;2023-11-21T00:26:18;97821.63;;;7.62;100.00
41102;BME280;26845;50.190;19.178;2023-11-21T00:28:45;97830.19;;;7.61;100.00
41102;BME280;26845;50.190;19.178;2023-11-21T00:31:11;97836.33;;;7.61;100.00
41102;BME280;26845;50.190;19.178;2023-11-21T00:33:37;97839.40;;;7.60;100.00
41102;BME280;26845;50.190;19.178;2023-11-21T00:36:03;97835.48;;;7.60;100.00
41102;BME280;26845;50.190;19.178;2023-11-21T00:38:29;97839.30;;;7.59;100.00
41102;BME280;26845;50.190;19.178;2023-11-21T00:40:55;97838.56;;;7.58;100.00
41102;BME280;26845;50.190;19.178;2023-11-21T00:43:22;97837.45;;;7.56;100.00
41102;BME280;26845;50.190;19.178;2023-11-21T00:45:48;97836.38;;;7.55;100.00
41102;BME280;26845;50.190;19.178;2023-11-21T00:48:17;97830.89;;;7.53;100.00
41102;BME280;26845;50.190;19.178;2023-11-21T00:50:44;97826.63;;;7.51;100.00
41102;BME280;26845;50.190;19.178;2023-11-21T00:53:09;97826.92;;;7.51;100.00
41102;BME280;26845;50.190;19.178;2023-11-21T00:55:36;97823.61;;;7.51;100.00
41102;BME280;26845;50.190;19.178;2023-11-21T00:58:02;97824.27;;;7.52;100.00
41102;BME280;26845;50.190;19.178;2023-11-21T01:00:30;97822.21;;;7.52;100.00
41102;BME280;26845;50.190;19.178;2023-11-21T01:02:56;97821.40;;;7.51;100.00
41102;BME280;26845;50.190;19.178;2023-11-21T01:05:22;97821.33;;;7.51;100.00
41102;BME280;26845;50.190;19.178;2023-11-21T01:07:48;97826.91;;;7.52;100.00
41102;BME280;26845;50.190;19.178;2023-11-21T01:10:14;97824.88;;;7.53;100.00
41102;BME280;26845;50.190;19.178;2023-11-21T01:12:42;97824.17;;;7.54;100.00
41102;BME280;26845;50.190;19.178;2023-11-21T01:15:08;97827.95;;;7.56;100.00
41102;BME280;26845;50.190;19.178;2023-11-21T01:17:34;97819.98;;;7.56;100.00
41102;BME280;26845;50.190;19.178;2023-11-21T01:20:01;97817.41;;;7.55;100.00
41102;BME280;26845;50.190;19.178;2023-11-21T01:22:27;97819.09;;;7.54;100.00
41102;BME280;26845;50.190;19.178;2023-11-21T01:24:53;97820.33;;;7.54;100.00
41102;BME280;26845;50.190;19.178;2023-11-21T01:27:20;97814.09;;;7.52;100.00
41102;BME280;26845;50.190;19.178;2023-11-21T01:29:46;97818.34;;;7.51;100.00
41102;BME280;26845;50.190;19.178;2023-11-21T01:32:12;97816.65;;;7.53;100.00
41102;BME280;26845;50.190;19.178;2023-11-21T01:34:38;97823.98;;;7.52;100.00
41102;BME280;26845;50.190;19.178;2023-11-21T01:37:05;97832.16;;;7.50;100.00
41102;BME280;26845;50.190;19.178;2023-11-21T01:39:31;97829.28;;;7.48;100.00
41102;BME280;26845;50.190;19.178;2023-11-21T01:41:57;97831.59;;;7.48;100.00
41102;BME280;26845;50.190;19.178;2023-11-21T01:44:24;97843.16;;;7.49;100.00
41102;BME280;26845;50.190;19.178;2023-11-21T01:46:50;97840.45;;;7.47;100.00
41102;BME280;26845;50.190;19.178;2023-11-21T01:49:16;97842.91;;;7.43;100.00
41102;BME280;26845;50.190;19.178;2023-11-21T01:51:43;97848.36;;;7.42;100.00
41102;BME280;26845;50.190;19.178;2023-11-21T01:54:10;97844.06;;;7.39;100.00
41102;BME280;26845;50.190;19.178;2023-11-21T01:56:38;97849.62;;;7.38;100.00
41102;BME280;26845;50.190;19.178;2023-11-21T01:59:04;97846.24;;;7.39;100.00
41102;BME280;26845;50.190;19.178;2023-11-21T02:01:32;97847.06;;;7.37;100.00
41102;BME280;26845;50.190;19.178;2023-11-21T02:03:59;97841.70;;;7.35;100.00
41102;BME280;26845;50.190;19.178;2023-11-21T02:06:26;97843.48;;;7.32;100.00
41102;BME280;26845;50.190;19.178;2023-11-21T02:08:56;97845.90;;;7.31;100.00
41102;BME280;26845;50.190;19.178;2023-11-21T02:11:23;97845.36;;;7.29;100.00
41102;BME280;26845;50.190;19.178;2023-11-21T02:13:49;97848.38;;;7.28;100.00
41102;BME280;26845;50.190;19.178;2023-11-21T02:16:15;97849.85;;;7.26;100.00
41102;BME280;26845;50.190;19.178;2023-11-21T02:18:41;97844.67;;;7.25;100.00
41102;BME280;26845;50.190;19.178;2023-11-21T02:21:08;97847.56;;;7.23;100.00
41102;BME280;26845;50.190;19.178;2023-11-21T02:23:35;97843.71;;;7.22;100.00
41102;BME280;26845;50.190;19.178;2023-11-21T02:26:01;97842.23;;;7.20;100.00
41102;BME280;26845;50.190;19.178;2023-11-21T02:28:29;97847.36;;;7.20;100.00
41102;BME280;26845;50.190;19.178;2023-11-21T02:30:55;97849.30;;;7.18;100.00
41102;BME280;26845;50.190;19.178;2023-11-21T02:33:23;97846.23;;;7.17;100.00
41102;BME280;26845;50.190;19.178;2023-11-21T02:35:49;97848.29;;;7.15;100.00
41102;BME280;26845;50.190;19.178;2023-11-21T02:38:20;97847.42;;;7.13;100.00
41102;BME280;26845;50.190;19.178;2023-11-21T02:40:46;97848.03;;;7.12;100.00
41102;BME280;26845;50.190;19.178;2023-11-21T02:43:14;97841.98;;;7.11;100.00
41102;BME280;26845;50.190;19.178;2023-11-21T02:45:40;97851.41;;;7.10;100.00
41102;BME280;26845;50.190;19.178;2023-11-21T02:48:07;97851.66;;;7.08;100.00
41102;BME280;26845;50.190;19.178;2023-11-21T02:50:33;97855.33;;;7.07;100.00
41102;BME280;26845;50.190;19.178;2023-11-21T02:53:00;97853.48;;;7.06;100.00
41102;BME280;26845;50.190;19.178;2023-11-21T02:55:27;97848.05;;;7.04;100.00
41102;BME280;26845;50.190;19.178;2023-11-21T02:57:53;97848.77;;;7.03;100.00
41102;BME280;26845;50.190;19.178;2023-11-21T03:00:19;97853.20;;;7.00;100.00
41102;BME280;26845;50.190;19.178;2023-11-21T03:02:45;97854.79;;;6.97;100.00
41102;BME280;26845;50.190;19.178;2023-11-21T03:05:13;97862.33;;;6.96;100.00
41102;BME280;26845;50.190;19.178;2023-11-21T03:07:39;97866.90;;;6.94;100.00
41102;BME280;26845;50.190;19.178;2023-11-21T03:10:06;97867.04;;;6.92;100.00
41102;BME280;26845;50.190;19.178;2023-11-21T03:12:31;97867.61;;;6.92;100.00
41102;BME280;26845;50.190;19.178;2023-11-21T03:14:57;97874.80;;;6.90;100.00
41102;BME280;26845;50.190;19.178;2023-11-21T03:17:23;97877.32;;;6.88;100.00
41102;BME280;26845;50.190;19.178;2023-11-21T03:19:49;97877.80;;;6.87;100.00
41102;BME280;26845;50.190;19.178;2023-11-21T03:22:16;97878.56;;;6.87;100.00
41102;BME280;26845;50.190;19.178;2023-11-21T03:24:42;97877.03;;;6.86;100.00
41102;BME280;26845;50.190;19.178;2023-11-21T03:27:08;97872.77;;;6.85;100.00
41102;BME280;26845;50.190;19.178;2023-11-21T03:29:34;97872.61;;;6.84;100.00
41102;BME280;26845;50.190;19.178;2023-11-21T03:32:00;97877.97;;;6.82;100.00
41102;BME280;26845;50.190;19.178;2023-11-21T03:34:27;97872.42;;;6.83;100.00
41102;BME280;26845;50.190;19.178;2023-11-21T03:36:53;97871.48;;;6.81;100.00
41102;BME280;26845;50.190;19.178;2023-11-21T03:39:19;97882.17;;;6.80;100.00
41102;BME280;26845;50.190;19.178;2023-11-21T03:41:45;97881.45;;;6.78;100.00
41102;BME280;26845;50.190;19.178;2023-11-21T03:44:11;97882.34;;;6.77;100.00
41102;BME280;26845;50.190;19.178;2023-11-21T03:46:37;97881.26;;;6.76;100.00
41102;BME280;26845;50.190;19.178;2023-11-21T03:49:04;97885.45;;;6.78;100.00
41102;BME280;26845;50.190;19.178;2023-11-21T03:51:30;97880.41;;;6.78;100.00
41102;BME280;26845;50.190;19.178;2023-11-21T03:53:56;97881.38;;;6.78;100.00
41102;BME280;26845;50.190;19.178;2023-11-21T03:56:22;97878.32;;;6.79;100.00
41102;BME280;26845;50.190;19.178;2023-11-21T03:58:48;97883.33;;;6.80;100.00
41102;BME280;26845;50.190;19.178;2023-11-21T04:01:21;97884.23;;;6.79;100.00
41102;BME280;26845;50.190;19.178;2023-11-21T04:03:47;97892.56;;;6.78;100.00
41102;BME280;26845;50.190;19.178;2023-11-21T04:06:13;97885.77;;;6.78;100.00
41102;BME280;26845;50.190;19.178;2023-11-21T04:08:39;97887.59;;;6.77;100.00
41102;BME280;26845;50.190;19.178;2023-11-21T04:11:05;97887.10;;;6.76;100.00
41102;BME280;26845;50.190;19.178;2023-11-21T04:13:31;97889.09;;;6.76;100.00
41102;BME280;26845;50.190;19.178;2023-11-21T04:15:58;97888.77;;;6.76;100.00
41102;BME280;26845;50.190;19.178;2023-11-21T04:18:24;97887.11;;;6.76;100.00
41102;BME280;26845;50.190;19.178;2023-11-21T04:20:51;97884.80;;;6.76;100.00
41102;BME280;26845;50.190;19.178;2023-11-21T04:23:17;97889.64;;;6.75;100.00
41102;BME280;26845;50.190;19.178;2023-11-21T04:25:43;97888.78;;;6.73;100.00
41102;BME280;26845;50.190;19.178;2023-11-21T04:28:09;97893.45;;;6.72;100.00
41102;BME280;26845;50.190;19.178;2023-11-21T04:30:35;97890.89;;;6.72;100.00
41102;BME280;26845;50.190;19.178;2023-11-21T04:33:01;97893.66;;;6.70;100.00
41102;BME280;26845;50.190;19.178;2023-11-21T04:35:28;97894.31;;;6.71;100.00
41102;BME280;26845;50.190;19.178;2023-11-21T04:37:54;97893.21;;;6.71;100.00
41102;BME280;26845;50.190;19.178;2023-11-21T04:40:20;97899.78;;;6.71;100.00
41102;BME280;26845;50.190;19.178;2023-11-21T04:42:46;97901.54;;;6.72;100.00
41102;BME280;26845;50.190;19.178;2023-11-21T04:45:12;97901.95;;;6.70;100.00
41102;BME280;26845;50.190;19.178;2023-11-21T04:47:38;97902.87;;;6.71;100.00
41102;BME280;26845;50.190;19.178;2023-11-21T04:50:05;97908.21;;;6.72;100.00
41102;BME280;26845;50.190;19.178;2023-11-21T04:52:31;97908.08;;;6.73;100.00
41102;BME280;26845;50.190;19.178;2023-11-21T04:54:58;97907.81;;;6.73;100.00
41102;BME280;26845;50.190;19.178;2023-11-21T04:57:26;97904.98;;;6.73;100.00
41102;BME280;26845;50.190;19.178;2023-11-21T04:59:53;97910.20;;;6.76;100.00
41102;BME280;26845;50.190;19.178;2023-11-21T05:02:19;97911.87;;;6.81;100.00
41102;BME280;26845;50.190;19.178;2023-11-21T05:04:46;97922.64;;;6.87;100.00
41102;BME280;26845;50.190;19.178;2023-11-21T05:07:12;97917.94;;;6.98;100.00
41102;BME280;26845;50.190;19.178;2023-11-21T05:09:42;97914.92;;;7.09;100.00
41102;BME280;26845;50.190;19.178;2023-11-21T05:12:17;97925.54;;;7.13;100.00
41102;BME280;26845;50.190;19.178;2023-11-21T05:14:43;97924.48;;;7.17;100.00
41102;BME280;26845;50.190;19.178;2023-11-21T05:17:10;97928.15;;;7.19;100.00
41102;BME280;26845;50.190;19.178;2023-11-21T05:19:36;97923.31;;;7.09;100.00
41102;BME280;26845;50.190;19.178;2023-11-21T05:22:03;97934.60;;;7.00;100.00
41102;BME280;26845;50.190;19.178;2023-11-21T05:24:29;97928.11;;;6.98;100.00
41102;BME280;26845;50.190;19.178;2023-11-21T05:26:55;97932.15;;;6.98;100.00
41102;BME280;26845;50.190;19.178;2023-11-21T05:29:22;97932.95;;;6.97;100.00
41102;BME280;26845;50.190;19.178;2023-11-21T05:31:48;97936.86;;;6.93;100.00
41102;BME280;26845;50.190;19.178;2023-11-21T05:34:14;97936.56;;;6.89;100.00
41102;BME280;26845;50.190;19.178;2023-11-21T05:36:42;97935.80;;;6.84;100.00
41102;BME280;26845;50.190;19.178;2023-11-21T05:39:11;97932.27;;;6.81;100.00
41102;BME280;26845;50.190;19.178;2023-11-21T05:41:36;97933.70;;;6.77;100.00
41102;BME280;26845;50.190;19.178;2023-11-21T05:44:03;97936.61;;;6.74;100.00
41102;BME280;26845;50.190;19.178;2023-11-21T05:46:29;97942.36;;;6.69;100.00
41102;BME280;26845;50.190;19.178;2023-11-21T05:48:55;97944.63;;;6.64;100.00
41102;BME280;26845;50.190;19.178;2023-11-21T05:51:21;97947.54;;;6.63;100.00
41102;BME280;26845;50.190;19.178;2023-11-21T05:53:50;97948.85;;;6.61;100.00
41102;BME280;26845;50.190;19.178;2023-11-21T05:56:16;97949.70;;;6.59;100.00
41102;BME280;26845;50.190;19.178;2023-11-21T05:58:43;97950.48;;;6.59;100.00
41102;BME280;26845;50.190;19.178;2023-11-21T06:01:09;97958.35;;;6.59;100.00
41102;BME280;26845;50.190;19.178;2023-11-21T06:03:38;97955.04;;;6.59;100.00
41102;BME280;26845;50.190;19.178;2023-11-21T06:06:04;97961.52;;;6.58;100.00
41102;BME280;26845;50.190;19.178;2023-11-21T06:08:31;97965.90;;;6.57;100.00
41102;BME280;26845;50.190;19.178;2023-11-21T06:10:58;97969.20;;;6.58;100.00
41102;BME280;26845;50.190;19.178;2023-11-21T06:13:24;97972.61;;;6.57;100.00
41102;BME280;26845;50.190;19.178;2023-11-21T06:15:50;97972.08;;;6.57;100.00
41102;BME280;26845;50.190;19.178;2023-11-21T06:18:16;97974.80;;;6.58;100.00
41102;BME280;26845;50.190;19.178;2023-11-21T06:20:45;97979.45;;;6.60;100.00
41102;BME280;26845;50.190;19.178;2023-11-21T06:23:10;97984.10;;;6.61;100.00
41102;BME280;26845;50.190;19.178;2023-11-21T06:25:36;97985.46;;;6.63;100.00
41102;BME280;26845;50.190;19.178;2023-11-21T06:28:02;97979.94;;;6.63;100.00
41102;BME280;26845;50.190;19.178;2023-11-21T06:30:29;97984.45;;;6.64;100.00
41102;BME280;26845;50.190;19.178;2023-11-21T06:32:55;97986.73;;;6.66;100.00
41102;BME280;26845;50.190;19.178;2023-11-21T06:35:21;97989.87;;;6.68;100.00
41102;BME280;26845;50.190;19.178;2023-11-21T06:37:47;97992.16;;;6.70;100.00
41102;BME280;26845;50.190;19.178;2023-11-21T06:40:14;97991.25;;;6.72;100.00
41102;BME280;26845;50.190;19.178;2023-11-21T06:42:40;97991.31;;;6.73;100.00
41102;BME280;26845;50.190;19.178;2023-11-21T06:45:07;97995.36;;;6.75;100.00
41102;BME280;26845;50.190;19.178;2023-11-21T06:47:32;97989.95;;;6.75;100.00
41102;BME280;26845;50.190;19.178;2023-11-21T06:50:00;97989.81;;;6.76;100.00
41102;BME280;26845;50.190;19.178;2023-11-21T06:52:26;97986.95;;;6.75;100.00
41102;BME280;26845;50.190;19.178;2023-11-21T06:54:52;97990.27;;;6.75;100.00
41102;BME280;26845;50.190;19.178;2023-11-21T06:57:18;97991.60;;;6.75;100.00
41102;BME280;26845;50.190;19.178;2023-11-21T06:59:44;97991.43;;;6.75;100.00
41102;BME280;26845;50.190;19.178;2023-11-21T07:02:10;97996.88;;;6.74;100.00
41102;BME280;26845;50.190;19.178;2023-11-21T07:04:36;97999.02;;;6.74;100.00
41102;BME280;26845;50.190;19.178;2023-11-21T07:07:03;98001.41;;;6.76;100.00
41102;BME280;26845;50.190;19.178;2023-11-21T07:09:29;98004.04;;;6.76;100.00
41102;BME280;26845;50.190;19.178;2023-11-21T07:11:55;98000.67;;;6.76;100.00
41102;BME280;26845;50.190;19.178;2023-11-21T07:14:21;98000.46;;;6.79;100.00
41102;BME280;26845;50.190;19.178;2023-11-21T07:16:47;98000.30;;;6.82;100.00
41102;BME280;26845;50.190;19.178;2023-11-21T07:19:14;98004.38;;;6.84;100.00
41102;BME280;26845;50.190;19.178;2023-11-21T07:21:40;98005.27;;;6.88;100.00
41102;BME280;26845;50.190;19.178;2023-11-21T07:24:06;98005.81;;;6.89;100.00
41102;BME280;26845;50.190;19.178;2023-11-21T07:26:33;98007.19;;;6.86;100.00
41102;BME280;26845;50.190;19.178;2023-11-21T07:29:00;98005.33;;;6.85;100.00
41102;BME280;26845;50.190;19.178;2023-11-21T07:31:26;98009.45;;;6.86;100.00
41102;BME280;26845;50.190;19.178;2023-11-21T07:33:52;98011.67;;;6.86;100.00
41102;BME280;26845;50.190;19.178;2023-11-21T07:36:19;98009.44;;;6.87;100.00
41102;BME280;26845;50.190;19.178;2023-11-21T07:38:45;98018.10;;;6.89;100.00
41102;BME280;26845;50.190;19.178;2023-11-21T07:41:12;98017.27;;;6.93;100.00
41102;BME280;26845;50.190;19.178;2023-11-21T07:43:41;98017.30;;;6.94;100.00
41102;BME280;26845;50.190;19.178;2023-11-21T07:46:07;98026.77;;;6.95;100.00
41102;BME280;26845;50.190;19.178;2023-11-21T07:48:34;98025.79;;;6.97;100.00
41102;BME280;26845;50.190;19.178;2023-11-21T07:51:00;98023.89;;;6.99;100.00
41102;BME280;26845;50.190;19.178;2023-11-21T07:53:26;98022.79;;;6.99;100.00
41102;BME280;26845;50.190;19.178;2023-11-21T07:55:58;98023.94;;;7.00;100.00
41102;BME280;26845;50.190;19.178;2023-11-21T07:58:24;98024.54;;;7.01;100.00
41102;BME280;26845;50.190;19.178;2023-11-21T08:00:50;98029.16;;;7.02;100.00
41102;BME280;26845;50.190;19.178;2023-11-21T08:03:17;98038.40;;;7.03;100.00
41102;BME280;26845;50.190;19.178;2023-11-21T08:05:43;98038.32;;;7.05;100.00
41102;BME280;26845;50.190;19.178;2023-11-21T08:08:09;98037.12;;;7.06;100.00
41102;BME280;26845;50.190;19.178;2023-11-21T08:10:35;98044.70;;;7.07;100.00
41102;BME280;26845;50.190;19.178;2023-11-21T08:13:05;98048.23;;;7.08;100.00
41102;BME280;26845;50.190;19.178;2023-11-21T08:15:31;98045.36;;;7.10;100.00
41102;BME280;26845;50.190;19.178;2023-11-21T08:18:00;98045.48;;;7.11;100.00
41102;BME280;26845;50.190;19.178;2023-11-21T08:20:26;98048.59;;;7.15;100.00
41102;BME280;26845;50.190;19.178;2023-11-21T08:22:54;98040.52;;;7.14;100.00
41102;BME280;26845;50.190;19.178;2023-11-21T08:25:22;98043.77;;;7.17;100.00
41102;BME280;26845;50.190;19.178;2023-11-21T08:27:48;98044.25;;;7.25;100.00
41102;BME280;26845;50.190;19.178;2023-11-21T08:30:14;98048.48;;;7.28;100.00
41102;BME280;26845;50.190;19.178;2023-11-21T08:32:42;98050.13;;;7.29;100.00
41102;BME280;26845;50.190;19.178;2023-11-21T08:35:08;98050.13;;;7.31;100.00
41102;BME280;26845;50.190;19.178;2023-11-21T08:37:34;98050.26;;;7.30;100.00
41102;BME280;26845;50.190;19.178;2023-11-21T08:40:03;98047.32;;;7.28;100.00
41102;BME280;26845;50.190;19.178;2023-11-21T08:42:29;98050.02;;;7.30;100.00
41102;BME280;26845;50.190;19.178;2023-11-21T08:44:56;98050.09;;;7.31;100.00
41102;BME280;26845;50.190;19.178;2023-11-21T08:47:25;98055.98;;;7.35;100.00
41102;BME280;26845;50.190;19.178;2023-11-21T08:49:52;98058.61;;;7.38;100.00
41102;BME280;26845;50.190;19.178;2023-11-21T08:52:21;98061.89;;;7.40;100.00
41102;BME280;26845;50.190;19.178;2023-11-21T08:54:49;98067.22;;;7.40;100.00
41102;BME280;26845;50.190;19.178;2023-11-21T08:57:21;98069.80;;;7.44;100.00
41102;BME280;26845;50.190;19.178;2023-11-21T08:59:47;98069.67;;;7.43;100.00
41102;BME280;26845;50.190;19.178;2023-11-21T09:02:13;98072.79;;;7.40;100.00
41102;BME280;26845;50.190;19.178;2023-11-21T09:04:40;98069.34;;;7.41;100.00
41102;BME280;26845;50.190;19.178;2023-11-21T09:07:06;98065.40;;;7.41;100.00
41102;BME280;26845;50.190;19.178;2023-11-21T09:09:32;98067.44;;;7.39;100.00
41102;BME280;26845;50.190;19.178;2023-11-21T09:11:58;98070.02;;;7.38;100.00
41102;BME280;26845;50.190;19.178;2023-11-21T09:14:27;98068.52;;;7.33;100.00
41102;BME280;26845;50.190;19.178;2023-11-21T09:16:53;98069.86;;;7.30;100.00
41102;BME280;26845;50.190;19.178;2023-11-21T09:19:19;98071.00;;;7.29;100.00
41102;BME280;26845;50.190;19.178;2023-11-21T09:21:45;98073.19;;;7.30;100.00
41102;BME280;26845;50.190;19.178;2023-11-21T09:24:11;98067.72;;;7.30;100.00
41102;BME280;26845;50.190;19.178;2023-11-21T09:26:38;98070.77;;;7.30;100.00
41102;BME280;26845;50.190;19.178;2023-11-21T09:29:04;98066.48;;;7.29;100.00
41102;BME280;26845;50.190;19.178;2023-11-21T09:31:30;98068.65;;;7.28;100.00
41102;BME280;26845;50.190;19.178;2023-11-21T09:33:56;98063.81;;;7.27;100.00
41102;BME280;26845;50.190;19.178;2023-11-21T09:36:23;98063.17;;;7.26;100.00
41102;BME280;26845;50.190;19.178;2023-11-21T09:38:52;98064.92;;;7.27;100.00
41102;BME280;26845;50.190;19.178;2023-11-21T09:41:23;98069.09;;;7.26;100.00
41102;BME280;26845;50.190;19.178;2023-11-21T09:43:52;98065.39;;;7.28;100.00
41102;BME280;26845;50.190;19.178;2023-11-21T09:46:21;98067.82;;;7.32;100.00
41102;BME280;26845;50.190;19.178;2023-11-21T09:48:50;98062.50;;;7.36;100.00
41102;BME280;26845;50.190;19.178;2023-11-21T09:51:17;98066.92;;;7.40;100.00
41102;BME280;26845;50.190;19.178;2023-11-21T09:53:45;98061.85;;;7.46;100.00
41102;BME280;26845;50.190;19.178;2023-11-21T09:56:11;98060.64;;;7.49;100.00
41102;BME280;26845;50.190;19.178;2023-11-21T09:58:39;98057.56;;;7.52;100.00
41102;BME280;26845;50.190;19.178;2023-11-21T10:01:05;98060.34;;;7.58;100.00
41102;BME280;26845;50.190;19.178;2023-11-21T10:03:34;98059.80;;;7.62;100.00
41102;BME280;26845;50.190;19.178;2023-11-21T10:06:01;98054.77;;;7.64;100.00
41102;BME280;26845;50.190;19.178;2023-11-21T10:08:28;98056.84;;;7.65;100.00
41102;BME280;26845;50.190;19.178;2023-11-21T10:10:55;98057.79;;;7.71;100.00
41102;BME280;26845;50.190;19.178;2023-11-21T10:13:21;98055.33;;;7.79;100.00
41102;BME280;26845;50.190;19.178;2023-11-21T10:15:49;98061.86;;;7.89;100.00
41102;BME280;26845;50.190;19.178;2023-11-21T10:18:15;98060.39;;;8.09;100.00
41102;BME280;26845;50.190;19.178;2023-11-21T10:20:41;98059.39;;;8.22;100.00
41102;BME280;26845;50.190;19.178;2023-11-21T10:23:07;98058.95;;;8.25;100.00
41102;BME280;26845;50.190;19.178;2023-11-21T10:25:37;98061.84;;;8.25;100.00
41102;BME280;26845;50.190;19.178;2023-11-21T10:28:03;98064.55;;;8.23;100.00
41102;BME280;26845;50.190;19.178;2023-11-21T10:30:36;98063.02;;;8.22;100.00
41102;BME280;26845;50.190;19.178;2023-11-21T10:33:18;98060.23;;;8.15;100.00
41102;BME280;26845;50.190;19.178;2023-11-21T10:35:52;98061.89;;;8.05;100.00
41102;BME280;26845;50.190;19.178;2023-11-21T10:38:23;98065.50;;;7.98;100.00
41102;BME280;26845;50.190;19.178;2023-11-21T10:40:59;98060.52;;;7.92;100.00
41102;BME280;26845;50.190;19.178;2023-11-21T10:43:25;98055.45;;;7.91;100.00
41102;BME280;26845;50.190;19.178;2023-11-21T10:45:51;98053.64;;;7.91;100.00
41102;BME280;26845;50.190;19.178;2023-11-21T10:48:17;98051.56;;;7.94;100.00
41102;BME280;26845;50.190;19.178;2023-11-21T10:50:45;98054.44;;;7.94;100.00
41102;BME280;26845;50.190;19.178;2023-11-21T10:53:11;98050.25;;;7.89;100.00
41102;BME280;26845;50.190;19.178;2023-11-21T10:55:40;98051.16;;;7.84;100.00
41102;BME280;26845;50.190;19.178;2023-11-21T10:58:06;98054.14;;;7.80;100.00
41102;BME280;26845;50.190;19.178;2023-11-21T11:00:33;98057.44;;;7.76;100.00
41102;BME280;26845;50.190;19.178;2023-11-21T11:02:59;98056.49;;;7.74;100.00
41102;BME280;26845;50.190;19.178;2023-11-21T11:05:29;98058.44;;;7.72;100.00
41102;BME280;26845;50.190;19.178;2023-11-21T11:08:08;98048.46;;;7.66;100.00
41102;BME280;26845;50.190;19.178;2023-11-21T11:10:33;98059.70;;;7.63;100.00
41102;BME280;26845;50.190;19.178;2023-11-21T11:13:00;98060.19;;;7.60;100.00
41102;BME280;26845;50.190;19.178;2023-11-21T11:15:27;98059.98;;;7.57;100.00
41102;BME280;26845;50.190;19.178;2023-11-21T11:17:53;98063.64;;;7.55;100.00
41102;BME280;26845;50.190;19.178;2023-11-21T11:20:23;98063.30;;;7.53;100.00
41102;BME280;26845;50.190;19.178;2023-11-21T11:25:46;98063.52;;;7.48;100.00
41102;BME280;26845;50.190;19.178;2023-11-21T11:29:04;98067.17;;;7.43;100.00
41102;BME280;26845;50.190;19.178;2023-11-21T11:33:57;98068.04;;;7.47;100.00
41102;BME280;26845;50.190;19.178;2023-11-21T11:36:39;98070.17;;;7.45;100.00
41102;BME280;26845;50.190;19.178;2023-11-21T11:41:55;98078.60;;;7.46;100.00
41102;BME280;26845;50.190;19.178;2023-11-21T11:47:32;98075.35;;;7.41;100.00
41102;BME280;26845;50.190;19.178;2023-11-21T11:50:06;98075.96;;;7.39;100.00
41102;BME280;26845;50.190;19.178;2023-11-21T11:52:57;98080.41;;;7.38;100.00
41102;BME280;26845;50.190;19.178;2023-11-21T11:55:37;98079.30;;;7.38;100.00
41102;BME280;26845;50.190;19.178;2023-11-21T11:58:04;98083.40;;;7.38;100.00
41102;BME280;26845;50.190;19.178;2023-11-21T12:00:34;98079.40;;;7.38;100.00
41102;BME280;26845;50.190;19.178;2023-11-21T12:03:03;98086.68;;;7.39;100.00
41102;BME280;26845;50.190;19.178;2023-11-21T12:05:30;98087.02;;;7.41;100.00
41102;BME280;26845;50.190;19.178;2023-11-21T12:08:02;98084.73;;;7.42;100.00
41102;BME280;26845;50.190;19.178;2023-11-21T12:10:32;98091.84;;;7.46;100.00
41102;BME280;26845;50.190;19.178;2023-11-21T12:12:59;98087.91;;;7.46;100.00
41102;BME280;26845;50.190;19.178;2023-11-21T12:15:26;98084.58;;;7.51;100.00
41102;BME280;26845;50.190;19.178;2023-11-21T12:17:54;98083.78;;;7.60;100.00
41102;BME280;26845;50.190;19.178;2023-11-21T12:20:22;98080.05;;;7.66;100.00
41102;BME280;26845;50.190;19.178;2023-11-21T12:22:52;98082.96;;;7.74;100.00
41102;BME280;26845;50.190;19.178;2023-11-21T12:25:18;98080.81;;;7.75;100.00
41102;BME280;26845;50.190;19.178;2023-11-21T12:27:51;98077.23;;;7.75;100.00
41102;BME280;26845;50.190;19.178;2023-11-21T12:30:19;98074.13;;;7.75;100.00
41102;BME280;26845;50.190;19.178;2023-11-21T12:32:51;98070.98;;;7.79;100.00
41102;BME280;26845;50.190;19.178;2023-11-21T12:35:18;98076.95;;;7.79;100.00
41102;BME280;26845;50.190;19.178;2023-11-21T12:37:45;98076.48;;;7.80;100.00
41102;BME280;26845;50.190;19.178;2023-11-21T12:40:12;98080.13;;;7.83;100.00
41102;BME280;26845;50.190;19.178;2023-11-21T12:42:41;98081.89;;;7.79;100.00
41102;BME280;26845;50.190;19.178;2023-11-21T12:45:07;98082.52;;;7.76;100.00
41102;BME280;26845;50.190;19.178;2023-11-21T12:47:34;98085.16;;;7.72;100.00
41102;BME280;26845;50.190;19.178;2023-11-21T12:50:01;98085.41;;;7.69;100.00
41102;BME280;26845;50.190;19.178;2023-11-21T12:52:28;98081.35;;;7.67;100.00
41102;BME280;26845;50.190;19.178;2023-11-21T12:54:54;98083.22;;;7.63;100.00
41102;BME280;26845;50.190;19.178;2023-11-21T12:57:25;98085.81;;;7.61;100.00
41102;BME280;26845;50.190;19.178;2023-11-21T12:59:52;98083.48;;;7.59;100.00
41102;BME280;26845;50.190;19.178;2023-11-21T13:02:19;98089.41;;;7.55;100.00